Time;durP1;ratioP1;P1;durP2;ratioP2;P2;SDS_P1;SDS_P2;PMS_P1;PMS_P2;Temp;Humidity;BMP_temperature;BMP_pressure;BME280_temperature;BME280_humidity;BME280_pressure;Samples;Min_cycle;Max_cycle;Signal;HPM_P1;HPM_P2
2021/12/14 00:00:52;;;;;;;25.10;21.30;;;8.90;99.90;;;;;;5069837;28;20262;-63
2021/12/14 00:03:26;;;;;;;21.93;19.60;;;8.80;99.90;;;;;;5084314;28;20244;-63
2021/12/14 00:05:55;;;;;;;25.37;19.80;;;8.90;99.90;;;;;;5072346;28;20317;-64
2021/12/14 00:08:26;;;;;;;25.50;20.33;;;8.90;99.90;;;;;;5072499;28;20239;-63
2021/12/14 00:11:29;;;;;;;22.00;19.00;;;8.90;99.90;;;;;;5073951;28;20310;-64
2021/12/14 00:14:11;;;;;;;23.37;18.87;;;8.90;99.90;;;;;;5072074;28;20235;-63
2021/12/14 00:16:43;;;;;;;23.30;20.27;;;9.00;99.90;;;;;;5080392;28;20241;-63
2021/12/14 00:19:12;;;;;;;24.00;19.07;;;8.90;99.90;;;;;;5080296;28;20235;-63
2021/12/14 00:21:47;;;;;;;27.90;20.73;;;8.90;99.90;;;;;;5065215;28;20249;-62
2021/12/14 00:24:15;;;;;;;23.87;19.77;;;8.90;99.90;;;;;;5063998;28;20238;-63
2021/12/14 00:26:47;;;;;;;23.87;19.90;;;9.00;99.90;;;;;;5072075;28;20230;-63
2021/12/14 00:29:18;;;;;;;21.87;19.57;;;8.80;99.90;;;;;;5081649;28;20321;-64
2021/12/14 00:31:49;;;;;;;22.97;19.97;;;8.80;99.90;;;;;;5070983;28;20254;-62
2021/12/14 00:34:24;;;;;;;24.50;19.23;;;8.90;99.90;;;;;;5073915;28;20234;-63
2021/12/14 00:36:53;;;;;;;22.17;19.87;;;8.90;99.90;;;;;;5052526;28;20331;-63
2021/12/14 00:39:21;;;;;;;22.20;18.80;;;8.90;99.90;;;;;;5050439;28;20235;-62
2021/12/14 00:41:49;;;;;;;21.87;19.43;;;8.80;99.90;;;;;;5081870;28;20467;-63
2021/12/14 00:44:17;;;;;;;24.17;20.07;;;8.80;99.90;;;;;;5080506;28;20430;-63
2021/12/14 00:46:47;;;;;;;25.23;20.00;;;8.80;99.90;;;;;;5075463;28;20263;-63
2021/12/14 00:49:16;;;;;;;23.10;19.90;;;8.70;99.90;;;;;;5084004;28;20234;-63
2021/12/14 00:51:45;;;;;;;22.53;19.47;;;8.80;99.90;;;;;;5073707;28;20610;-64
2021/12/14 00:54:16;;;;;;;23.17;19.50;;;8.90;99.90;;;;;;5066735;28;20571;-63
2021/12/14 00:56:45;;;;;;;22.83;20.17;;;8.80;99.90;;;;;;5074388;28;20817;-63
2021/12/14 00:59:14;;;;;;;24.53;20.10;;;8.90;99.90;;;;;;5073080;28;20239;-63
2021/12/14 01:01:47;;;;;;;23.10;19.17;;;8.80;99.90;;;;;;5045969;28;20232;-63
2021/12/14 01:04:24;;;;;;;23.37;18.20;;;8.80;99.90;;;;;;5066748;28;20243;-63
2021/12/14 01:06:54;;;;;;;23.10;18.50;;;8.80;99.90;;;;;;5058755;28;20233;-63
2021/12/14 01:09:25;;;;;;;27.80;20.33;;;8.90;99.90;;;;;;5073241;28;20235;-63
2021/12/14 01:12:01;;;;;;;25.43;20.47;;;8.90;99.90;;;;;;5053348;28;20296;-63
2021/12/14 01:14:40;;;;;;;22.50;19.47;;;8.90;99.90;;;;;;5073930;28;20634;-63
2021/12/14 01:17:25;;;;;;;24.20;18.77;;;8.90;99.90;;;;;;5064394;28;20780;-63
2021/12/14 01:19:59;;;;;;;22.23;19.07;;;8.80;99.90;;;;;;5071534;28;20285;-63
2021/12/14 01:22:41;;;;;;;23.67;19.67;;;8.80;99.90;;;;;;5052373;28;20230;-63
2021/12/14 01:25:16;;;;;;;24.37;20.80;;;8.90;99.90;;;;;;5050576;28;20657;-63
2021/12/14 01:27:49;;;;;;;25.10;21.97;;;8.80;99.90;;;;;;5065677;28;20253;-63
2021/12/14 01:30:29;;;;;;;22.13;19.80;;;8.80;99.90;;;;;;5062483;28;20299;-63
2021/12/14 01:33:02;;;;;;;22.20;19.90;;;8.80;99.90;;;;;;5049909;28;20242;-63
2021/12/14 01:35:40;;;;;;;24.63;21.23;;;8.80;99.90;;;;;;5058569;28;20285;-63
2021/12/14 01:38:31;;;;;;;25.23;20.87;;;8.80;99.90;;;;;;5054855;28;20718;-63
2021/12/14 01:41:03;;;;;;;22.07;19.40;;;8.80;99.90;;;;;;5064725;28;20321;-63
2021/12/14 01:43:42;;;;;;;24.83;20.93;;;8.80;99.90;;;;;;5053955;28;20230;-62
2021/12/14 01:46:20;;;;;;;23.77;20.60;;;8.80;99.90;;;;;;5065916;28;20242;-63
2021/12/14 01:48:51;;;;;;;24.30;20.77;;;8.80;99.90;;;;;;5047586;28;20235;-63
2021/12/14 01:51:42;;;;;;;23.23;20.40;;;8.80;99.90;;;;;;5079841;28;20234;-63
2021/12/14 01:54:24;;;;;;;22.37;19.97;;;8.70;99.90;;;;;;5056775;28;20249;-62
2021/12/14 01:56:53;;;;;;;24.27;21.53;;;8.70;99.90;;;;;;5051263;28;20235;-63
2021/12/14 01:59:27;;;;;;;27.03;20.27;;;8.70;99.90;;;;;;5049449;28;20621;-63
2021/12/14 02:02:08;;;;;;;26.50;20.40;;;8.60;99.90;;;;;;5043656;28;20368;-63
2021/12/14 02:04:42;;;;;;;26.17;21.63;;;8.60;99.90;;;;;;5073565;28;20230;-63
2021/12/14 02:07:13;;;;;;;25.23;20.90;;;8.60;99.90;;;;;;5070083;28;20807;-63
2021/12/14 02:09:49;;;;;;;25.70;20.20;;;8.60;99.90;;;;;;5060150;28;20230;-63
2021/12/14 02:12:20;;;;;;;26.20;21.10;;;8.60;99.90;;;;;;5076596;28;20654;-63
2021/12/14 02:14:49;;;;;;;24.20;21.13;;;8.70;99.90;;;;;;5072454;28;20255;-62
2021/12/14 02:17:21;;;;;;;25.43;20.23;;;8.70;99.90;;;;;;5050555;28;20254;-63
2021/12/14 02:19:51;;;;;;;24.73;21.33;;;8.80;99.90;;;;;;5051897;28;20223;-62
2021/12/14 02:22:21;;;;;;;25.40;21.50;;;8.70;99.90;;;;;;5074432;28;20337;-62
2021/12/14 02:24:51;;;;;;;22.53;20.03;;;8.70;99.90;;;;;;5056761;28;20235;-63
2021/12/14 02:27:20;;;;;;;24.57;19.37;;;8.70;99.90;;;;;;5049896;28;20784;-62
2021/12/14 02:29:50;;;;;;;24.87;20.97;;;8.70;99.90;;;;;;5072482;28;20314;-62
2021/12/14 02:32:26;;;;;;;23.10;20.33;;;8.80;99.90;;;;;;5072924;28;20317;-62
2021/12/14 02:35:00;;;;;;;24.63;20.97;;;8.80;99.90;;;;;;5067730;28;20317;-63
2021/12/14 02:37:39;;;;;;;25.13;20.33;;;8.80;99.90;;;;;;5072906;28;20245;-64
2021/12/14 02:40:17;;;;;;;23.70;20.20;;;8.70;99.90;;;;;;5059372;28;20282;-62
2021/12/14 02:42:49;;;;;;;26.40;20.07;;;8.70;99.90;;;;;;5042863;28;20235;-62
2021/12/14 02:45:21;;;;;;;22.03;19.53;;;8.70;99.90;;;;;;5067081;28;20706;-62
2021/12/14 02:47:50;;;;;;;25.23;20.77;;;8.70;99.90;;;;;;5050800;28;20238;-62
2021/12/14 02:50:18;;;;;;;22.87;19.93;;;8.70;99.90;;;;;;5064168;28;20719;-62
2021/12/14 02:52:48;;;;;;;23.97;20.43;;;8.60;99.90;;;;;;5047693;28;20280;-63
2021/12/14 02:55:21;;;;;;;24.63;19.77;;;8.60;99.90;;;;;;5059448;28;20239;-63
2021/12/14 02:57:52;;;;;;;23.50;19.13;;;8.60;99.90;;;;;;5078516;28;20309;-63
2021/12/14 03:00:29;;;;;;;21.93;19.57;;;8.60;99.90;;;;;;5069574;28;20238;-63
2021/12/14 03:03:01;;;;;;;23.40;19.60;;;8.60;99.90;;;;;;5072240;28;20273;-63
2021/12/14 03:05:33;;;;;;;23.90;20.07;;;8.70;99.90;;;;;;5055502;28;20249;-62
2021/12/14 03:08:07;;;;;;;23.50;18.93;;;8.70;99.90;;;;;;5048827;28;20236;-62
2021/12/14 03:10:53;;;;;;;20.90;18.73;;;8.70;99.90;;;;;;5064035;28;20232;-62
2021/12/14 03:13:24;;;;;;;21.13;18.73;;;8.70;99.90;;;;;;5050351;28;20288;-63
2021/12/14 03:15:57;;;;;;;22.33;20.03;;;8.70;99.90;;;;;;5071570;28;20231;-64
2021/12/14 03:18:28;;;;;;;22.30;19.37;;;8.70;99.90;;;;;;5066299;28;21097;-63
2021/12/14 03:20:59;;;;;;;21.43;18.90;;;8.60;99.90;;;;;;5047850;28;20231;-63
2021/12/14 03:23:31;;;;;;;21.23;19.00;;;8.60;99.90;;;;;;5073116;28;20606;-63
2021/12/14 03:26:01;;;;;;;23.40;19.23;;;8.70;99.90;;;;;;5060595;28;20265;-63
2021/12/14 03:28:31;;;;;;;21.07;18.23;;;8.70;99.90;;;;;;5077694;28;20781;-63
2021/12/14 03:31:16;;;;;;;22.27;19.43;;;8.70;99.90;;;;;;5074665;28;20307;-63
2021/12/14 03:33:47;;;;;;;21.33;19.00;;;8.70;99.90;;;;;;5061506;28;20254;-62
2021/12/14 03:36:22;;;;;;;22.87;18.77;;;8.60;99.90;;;;;;5050021;28;20235;-63
2021/12/14 03:38:55;;;;;;;21.37;18.43;;;8.60;99.90;;;;;;5069602;28;20261;-63
2021/12/14 03:41:27;;;;;;;21.50;18.07;;;8.70;99.90;;;;;;5050308;28;20346;-63
2021/12/14 03:43:58;;;;;;;21.33;18.97;;;8.70;99.90;;;;;;5069326;28;20321;-63
2021/12/14 03:46:35;;;;;;;20.10;17.73;;;8.70;99.90;;;;;;5052768;28;20648;-63
2021/12/14 03:49:07;;;;;;;21.23;18.57;;;8.80;99.90;;;;;;5071715;28;20223;-63
2021/12/14 03:51:36;;;;;;;21.50;19.20;;;8.70;99.90;;;;;;5076568;28;20250;-62
2021/12/14 03:54:07;;;;;;;19.43;17.33;;;8.60;99.90;;;;;;5072169;28;20246;-62
2021/12/14 03:56:37;;;;;;;20.93;17.23;;;8.70;99.90;;;;;;5056864;28;20904;-63
2021/12/14 03:59:07;;;;;;;20.53;18.23;;;8.60;99.90;;;;;;5071982;28;20266;-62
2021/12/14 04:01:40;;;;;;;20.27;17.30;;;8.60;99.90;;;;;;5056594;28;20281;-63
2021/12/14 04:04:18;;;;;;;21.63;19.37;;;8.70;99.90;;;;;;5051705;28;20235;-63
2021/12/14 04:06:49;;;;;;;22.37;19.83;;;8.60;99.90;;;;;;5049424;28;20279;-63
2021/12/14 04:09:20;;;;;;;21.70;17.90;;;8.60;99.90;;;;;;5077759;28;20265;-62
2021/12/14 04:11:51;;;;;;;20.13;17.97;;;8.50;99.90;;;;;;5072952;28;20231;-63
2021/12/14 04:14:21;;;;;;;19.40;17.30;;;8.50;99.90;;;;;;5051319;28;20258;-63
2021/12/14 04:16:52;;;;;;;20.57;17.43;;;8.50;99.90;;;;;;5052094;28;20223;-63
2021/12/14 04:19:24;;;;;;;19.23;17.23;;;8.50;99.90;;;;;;5067923;28;20733;-62
2021/12/14 04:21:58;;;;;;;20.17;17.97;;;8.60;99.90;;;;;;5064271;28;20589;-62
2021/12/14 04:24:31;;;;;;;19.80;17.70;;;8.50;99.90;;;;;;5069898;28;20306;-63
2021/12/14 04:27:02;;;;;;;19.50;17.10;;;8.50;99.90;;;;;;5073848;28;20223;-64
2021/12/14 04:29:31;;;;;;;19.90;17.37;;;8.50;99.90;;;;;;5069222;28;20587;-63
2021/12/14 04:32:04;;;;;;;20.60;16.60;;;8.50;99.90;;;;;;5063317;28;20242;-63
2021/12/14 04:34:33;;;;;;;20.53;16.83;;;8.40;99.90;;;;;;5059360;28;20334;-64
2021/12/14 04:37:04;;;;;;;20.57;18.43;;;8.50;99.90;;;;;;5040072;28;20294;-63
2021/12/14 04:39:43;;;;;;;20.97;17.97;;;8.40;99.90;;;;;;5065236;28;20234;-63
2021/12/14 04:53:44;;;;;;;18.77;15.73;;;8.50;99.90;;;;;;5042192;28;20825;-63
2021/12/14 04:56:24;;;;;;;21.20;15.93;;;8.50;99.90;;;;;;5037086;28;20235;-62
2021/12/14 04:58:58;;;;;;;17.73;15.33;;;8.40;99.90;;;;;;5034573;28;20631;-63
2021/12/14 05:01:26;;;;;;;16.67;14.97;;;8.50;99.90;;;;;;5048463;28;20250;-63
2021/12/14 05:03:58;;;;;;;18.00;15.93;;;8.50;99.90;;;;;;5067357;28;20230;-63
2021/12/14 05:06:43;;;;;;;16.83;15.03;;;8.50;99.90;;;;;;5066387;28;20237;-63
2021/12/14 05:09:22;;;;;;;18.50;15.53;;;8.50;99.90;;;;;;5041071;28;20319;-62
2021/12/14 05:12:22;;;;;;;20.60;16.27;;;8.50;99.90;;;;;;5064920;28;20230;-62
2021/12/14 05:15:07;;;;;;;18.43;15.40;;;8.40;99.90;;;;;;5050682;28;20673;-63
2021/12/14 05:17:41;;;;;;;17.67;15.77;;;8.50;99.90;;;;;;5050667;28;20295;-63
2021/12/14 05:20:12;;;;;;;19.30;16.30;;;8.40;99.90;;;;;;5071299;28;20547;-63
2021/12/14 05:22:44;;;;;;;17.40;14.30;;;8.40;99.90;;;;;;5056912;28;20231;-63
2021/12/14 05:25:21;;;;;;;17.33;15.33;;;8.40;99.90;;;;;;5052910;28;20326;-63
2021/12/14 05:27:58;;;;;;;16.47;14.50;;;8.40;99.90;;;;;;5052843;28;20223;-63
2021/12/14 05:30:30;;;;;;;17.33;15.37;;;8.40;99.90;;;;;;5049120;28;20258;-62
2021/12/14 05:33:16;;;;;;;17.20;14.97;;;8.40;99.90;;;;;;5056626;28;20628;-63
2021/12/14 05:35:47;;;;;;;17.97;16.07;;;8.30;99.90;;;;;;5049714;28;20653;-62
2021/12/14 05:38:20;;;;;;;19.03;16.77;;;8.30;99.90;;;;;;5054429;28;20239;-63
2021/12/14 05:40:57;;;;;;;19.03;16.27;;;8.20;99.90;;;;;;5051422;28;20230;-62
2021/12/14 05:43:35;;;;;;;19.40;16.70;;;8.30;99.90;;;;;;5061927;28;20231;-63
2021/12/14 05:46:21;;;;;;;19.60;16.47;;;8.20;99.90;;;;;;5052221;28;20435;-63
2021/12/14 05:49:12;;;;;;;19.37;17.20;;;8.20;99.90;;;;;;5047151;28;20263;-62
2021/12/14 05:51:40;;;;;;;19.67;16.93;;;8.20;99.90;;;;;;5046910;28;20231;-63
2021/12/14 05:54:09;;;;;;;22.77;17.03;;;8.20;99.90;;;;;;5066094;28;20285;-62
2021/12/14 05:56:37;;;;;;;23.57;19.03;;;8.20;99.90;;;;;;5065410;28;20340;-63
2021/12/14 05:59:07;;;;;;;21.40;18.27;;;8.30;99.90;;;;;;5067534;28;20266;-62
2021/12/14 06:01:35;;;;;;;21.03;17.70;;;8.20;99.90;;;;;;5072425;28;20234;-63
2021/12/14 06:04:09;;;;;;;20.83;18.10;;;8.30;99.90;;;;;;5049233;28;20239;-63
2021/12/14 06:06:42;;;;;;;21.93;17.70;;;8.30;99.90;;;;;;5057965;28;20249;-63
2021/12/14 06:09:14;;;;;;;20.30;16.77;;;8.40;99.90;;;;;;5049035;28;20306;-63
2021/12/14 06:11:56;;;;;;;24.17;18.23;;;8.40;99.90;;;;;;5064921;28;20281;-62
2021/12/14 06:14:30;;;;;;;22.43;17.73;;;8.40;99.90;;;;;;5067546;28;20680;-63
2021/12/14 06:17:00;;;;;;;25.60;18.70;;;8.40;99.90;;;;;;5067856;28;20231;-63
2021/12/14 06:19:32;;;;;;;23.90;18.27;;;8.40;99.90;;;;;;5064397;28;20254;-63
2021/12/14 06:22:04;;;;;;;23.33;19.33;;;8.40;99.90;;;;;;5046884;28;20252;-62
2021/12/14 06:24:35;;;;;;;21.57;19.03;;;8.30;99.90;;;;;;5053750;28;20238;-63
2021/12/14 06:27:09;;;;;;;22.37;18.70;;;8.20;99.90;;;;;;5045484;28;20238;-63
2021/12/14 06:29:40;;;;;;;22.77;19.13;;;8.30;99.90;;;;;;5061180;28;20234;-63
2021/12/14 06:32:11;;;;;;;23.80;18.93;;;8.30;99.90;;;;;;5066358;28;20237;-63
2021/12/14 06:34:42;;;;;;;23.73;19.90;;;8.40;99.90;;;;;;5049406;28;20238;-63
2021/12/14 06:38:10;;;;;;;23.70;20.00;;;8.30;99.90;;;;;;5059551;28;20296;-63
2021/12/14 06:40:43;;;;;;;23.53;19.37;;;8.20;99.90;;;;;;5045806;28;20618;-63
2021/12/14 06:43:15;;;;;;;24.57;19.03;;;8.20;99.90;;;;;;5035575;28;20246;-63
2021/12/14 06:45:51;;;;;;;26.33;21.30;;;8.30;99.90;;;;;;5046242;28;20734;-63
2021/12/14 06:48:22;;;;;;;28.47;22.30;;;8.20;99.90;;;;;;5071967;28;20230;-63
2021/12/14 06:50:53;;;;;;;28.50;21.67;;;8.20;99.90;;;;;;5041293;28;20730;-64
2021/12/14 06:53:32;;;;;;;30.50;22.10;;;8.20;99.90;;;;;;5056510;28;20262;-63
2021/12/14 06:56:31;;;;;;;32.93;22.00;;;8.10;99.90;;;;;;5061508;28;20263;-63
2021/12/14 06:59:05;;;;;;;31.47;23.17;;;8.20;99.90;;;;;;5061154;28;20243;-63
2021/12/14 07:02:09;;;;;;;32.83;23.43;;;8.10;99.90;;;;;;5035409;28;20238;-63
2021/12/14 07:04:51;;;;;;;33.60;23.87;;;8.10;99.90;;;;;;5052903;28;20772;-63
2021/12/14 07:07:24;;;;;;;31.50;23.20;;;8.10;99.90;;;;;;5054837;28;20597;-63
2021/12/14 07:09:56;;;;;;;35.07;24.90;;;8.20;99.90;;;;;;5042422;28;20584;-63
2021/12/14 07:12:27;;;;;;;33.57;23.33;;;8.20;99.90;;;;;;5063823;28;20313;-63
2021/12/14 07:15:10;;;;;;;31.90;23.67;;;8.20;99.90;;;;;;5073027;28;20674;-63
2021/12/14 07:17:43;;;;;;;34.37;24.30;;;8.10;99.90;;;;;;5065758;28;20235;-63
2021/12/14 07:20:25;;;;;;;34.80;25.13;;;8.20;99.90;;;;;;5062529;28;20247;-63
2021/12/14 07:22:55;;;;;;;35.00;25.40;;;8.20;99.90;;;;;;5075504;28;20775;-63
2021/12/14 07:25:28;;;;;;;34.63;24.87;;;8.10;99.90;;;;;;5069076;28;20230;-63
2021/12/14 07:27:57;;;;;;;32.67;24.63;;;8.10;99.90;;;;;;5066041;28;20334;-63
2021/12/14 07:30:32;;;;;;;34.17;24.40;;;8.00;99.90;;;;;;5064092;28;20227;-63
2021/12/14 07:33:09;;;;;;;34.37;25.00;;;8.00;99.90;;;;;;5062469;28;21417;-63
2021/12/14 07:35:48;;;;;;;35.37;25.53;;;8.00;99.90;;;;;;5065039;28;20272;-63
2021/12/14 07:38:38;;;;;;;34.27;25.10;;;7.90;99.90;;;;;;5060400;28;20296;-63
2021/12/14 07:41:12;;;;;;;36.20;24.57;;;8.00;99.90;;;;;;5067299;28;20246;-63
2021/12/14 07:43:45;;;;;;;36.80;25.97;;;8.00;99.90;;;;;;5074347;28;20243;-63
2021/12/14 07:46:18;;;;;;;36.43;25.20;;;8.00;99.90;;;;;;5072312;28;20293;-62
2021/12/14 07:48:51;;;;;;;36.00;26.50;;;8.00;99.90;;;;;;5067549;28;20238;-63
2021/12/14 07:51:22;;;;;;;32.93;24.57;;;8.00;99.90;;;;;;5065802;28;20267;-63
2021/12/14 07:53:55;;;;;;;35.17;26.17;;;8.00;99.90;;;;;;5066562;28;20590;-63
2021/12/14 07:56:36;;;;;;;35.07;24.80;;;8.00;99.90;;;;;;5064208;28;20326;-63
2021/12/14 07:59:11;;;;;;;35.00;25.93;;;8.00;99.90;;;;;;5068414;28;20330;-62
2021/12/14 08:01:40;;;;;;;37.63;25.77;;;8.00;99.90;;;;;;5065720;28;20277;-63
2021/12/14 08:04:12;;;;;;;37.70;26.10;;;7.90;99.90;;;;;;5072868;28;20254;-62
2021/12/14 08:07:01;;;;;;;36.17;26.47;;;8.00;99.90;;;;;;5062042;28;20606;-63
2021/12/14 08:09:50;;;;;;;41.50;27.30;;;8.00;99.90;;;;;;5061389;28;20235;-63
2021/12/14 08:12:34;;;;;;;41.33;26.87;;;8.00;99.90;;;;;;5077423;28;20642;-63
2021/12/14 08:15:21;;;;;;;39.40;27.07;;;8.00;99.90;;;;;;5068582;28;20277;-63
2021/12/14 08:18:04;;;;;;;38.90;26.27;;;8.00;99.90;;;;;;5069165;28;20314;-62
2021/12/14 08:20:36;;;;;;;38.37;26.77;;;8.00;99.90;;;;;;5070663;28;20643;-63
2021/12/14 08:23:16;;;;;;;38.93;27.10;;;8.00;99.90;;;;;;5074376;28;20285;-63
2021/12/14 08:25:44;;;;;;;40.87;27.63;;;8.00;99.90;;;;;;5068119;28;20238;-63
2021/12/14 08:28:14;;;;;;;45.30;29.33;;;8.00;99.90;;;;;;5067547;28;20292;-63
2021/12/14 08:31:05;;;;;;;43.03;28.00;;;8.00;99.90;;;;;;5059780;28;20254;-63
2021/12/14 08:33:34;;;;;;;44.23;28.37;;;8.00;99.90;;;;;;5079763;28;20226;-62
2021/12/14 08:36:06;;;;;;;43.20;28.10;;;8.00;99.90;;;;;;5065371;28;20258;-63
2021/12/14 08:38:36;;;;;;;38.97;27.67;;;8.00;99.90;;;;;;5071655;28;20235;-63
2021/12/14 08:41:13;;;;;;;43.30;28.33;;;8.00;99.90;;;;;;5070449;28;20709;-63
2021/12/14 08:43:48;;;;;;;39.63;26.93;;;8.00;99.90;;;;;;5074899;28;20266;-63
2021/12/14 08:46:20;;;;;;;44.60;29.20;;;8.10;99.90;;;;;;5075241;28;20240;-63
2021/12/14 08:48:51;;;;;;;42.83;28.87;;;8.10;99.90;;;;;;5069115;28;20694;-63
2021/12/14 08:51:25;;;;;;;45.97;28.77;;;8.10;99.90;;;;;;5063229;28;20238;-63
2021/12/14 08:53:56;;;;;;;44.77;28.27;;;8.10;99.90;;;;;;5062232;28;20720;-63
2021/12/14 08:56:27;;;;;;;45.57;28.17;;;8.10;99.90;;;;;;5078343;28;20330;-63
2021/12/14 08:58:56;;;;;;;48.30;29.57;;;8.10;99.90;;;;;;5066117;28;20247;-63
2021/12/14 09:01:28;;;;;;;47.33;29.23;;;8.20;99.90;;;;;;5072667;28;20241;-63
2021/12/14 09:04:03;;;;;;;45.57;29.17;;;8.20;99.90;;;;;;5073779;28;20765;-62
2021/12/14 09:06:37;;;;;;;45.60;28.13;;;8.20;99.90;;;;;;5064572;28;20242;-63
2021/12/14 09:09:11;;;;;;;47.93;29.53;;;8.20;99.90;;;;;;5064381;28;20804;-63
2021/12/14 09:11:42;;;;;;;48.57;30.23;;;8.20;99.90;;;;;;5062974;28;20354;-63
2021/12/14 09:14:13;;;;;;;46.40;29.77;;;8.20;99.90;;;;;;5077849;28;20712;-63
2021/12/14 09:16:47;;;;;;;47.20;30.07;;;8.20;99.90;;;;;;5061563;28;20320;-63
2021/12/14 09:19:20;;;;;;;48.57;30.73;;;8.20;99.90;;;;;;5066577;28;20299;-63
2021/12/14 09:21:55;;;;;;;49.07;30.97;;;8.30;99.90;;;;;;5075826;28;20341;-63
2021/12/14 09:24:27;;;;;;;47.73;31.13;;;8.30;99.90;;;;;;5071822;28;20253;-62
2021/12/14 09:26:59;;;;;;;53.70;33.57;;;8.20;99.90;;;;;;5065506;28;20254;-63
2021/12/14 09:29:28;;;;;;;51.43;32.33;;;8.20;99.90;;;;;;5072468;28;20686;-63
2021/12/14 09:32:00;;;;;;;51.80;32.07;;;8.20;99.90;;;;;;5064705;28;20239;-63
2021/12/14 09:34:31;;;;;;;53.43;30.80;;;8.30;99.90;;;;;;5066808;28;20263;-63
2021/12/14 09:37:02;;;;;;;49.13;29.70;;;8.30;99.90;;;;;;5071500;28;20238;-62
2021/12/14 09:39:34;;;;;;;48.67;32.57;;;8.30;99.90;;;;;;5067154;28;20258;-63
2021/12/14 09:42:08;;;;;;;49.33;32.33;;;8.30;99.90;;;;;;5073027;28;20234;-63
2021/12/14 09:44:36;;;;;;;45.77;29.50;;;8.30;99.90;;;;;;5071422;28;20324;-62
2021/12/14 09:47:11;;;;;;;47.57;30.03;;;8.30;99.90;;;;;;5072334;28;20237;-63
2021/12/14 09:49:40;;;;;;;44.33;31.10;;;8.30;99.90;;;;;;5056335;28;20313;-63
2021/12/14 09:52:14;;;;;;;47.20;31.37;;;8.30;99.90;;;;;;5061759;28;20243;-63
2021/12/14 09:54:43;;;;;;;47.93;30.57;;;8.30;99.90;;;;;;5061118;28;20235;-63
2021/12/14 09:57:17;;;;;;;44.07;30.10;;;8.30;99.90;;;;;;5076094;28;20333;-63
2021/12/14 09:59:45;;;;;;;47.00;30.80;;;8.30;99.90;;;;;;5065463;28;20309;-63
2021/12/14 10:02:17;;;;;;;44.90;30.37;;;8.30;99.90;;;;;;5061609;28;20718;-63
2021/12/14 10:04:50;;;;;;;44.70;29.50;;;8.30;99.90;;;;;;5068641;28;20227;-62
2021/12/14 10:07:22;;;;;;;48.50;30.30;;;8.30;99.90;;;;;;5066116;28;20657;-63
2021/12/14 10:09:52;;;;;;;45.27;29.53;;;8.30;99.90;;;;;;5064210;28;20831;-63
2021/12/14 10:12:49;;;;;;;44.97;29.77;;;8.30;99.90;;;;;;5068233;28;20294;-63
2021/12/14 10:15:22;;;;;;;44.50;29.00;;;8.30;99.90;;;;;;5067354;28;20239;-63
2021/12/14 10:17:53;;;;;;;41.53;29.00;;;8.30;99.90;;;;;;5061276;28;20317;-62
2021/12/14 10:20:26;;;;;;;46.23;29.60;;;8.30;99.90;;;;;;5063815;28;20549;-63
2021/12/14 10:22:57;;;;;;;43.63;29.57;;;8.30;99.90;;;;;;5069176;28;20641;-63
2021/12/14 10:25:26;;;;;;;42.60;28.57;;;8.30;99.90;;;;;;5063727;28;20249;-63
2021/12/14 10:27:56;;;;;;;44.07;28.90;;;8.30;99.90;;;;;;5065926;28;20271;-63
2021/12/14 10:30:28;;;;;;;44.90;28.40;;;8.30;99.90;;;;;;5061268;28;20234;-63
2021/12/14 10:32:57;;;;;;;43.00;27.97;;;8.40;99.90;;;;;;5060472;28;20233;-63
2021/12/14 10:35:33;;;;;;;40.27;27.57;;;8.40;99.90;;;;;;5069370;28;20312;-63
2021/12/14 10:38:14;;;;;;;41.87;28.27;;;8.40;99.90;;;;;;5062505;28;20313;-63
2021/12/14 10:43:33;;;;;;;39.67;28.20;;;8.40;99.90;;;;;;5065729;28;20266;-63
2021/12/14 10:46:07;;;;;;;43.63;28.83;;;8.40;99.90;;;;;;5066196;28;20242;-63
2021/12/14 10:48:39;;;;;;;40.17;26.67;;;8.40;99.90;;;;;;5066883;28;20244;-63
2021/12/14 10:51:10;;;;;;;42.40;27.80;;;8.40;99.90;;;;;;5061751;28;20246;-63
2021/12/14 10:53:43;;;;;;;45.83;29.37;;;8.40;99.90;;;;;;5069053;28;20314;-63
2021/12/14 10:56:34;;;;;;;42.03;27.87;;;8.50;99.90;;;;;;5060569;28;20234;-64
2021/12/14 10:59:06;;;;;;;45.63;30.13;;;8.50;99.90;;;;;;5061418;28;20702;-63
2021/12/14 11:01:35;;;;;;;48.20;31.00;;;8.50;99.90;;;;;;5063178;28;20258;-63
2021/12/14 11:04:08;;;;;;;47.77;28.87;;;8.50;99.90;;;;;;5064801;28;20227;-63
2021/12/14 11:06:42;;;;;;;46.80;29.07;;;8.50;99.90;;;;;;5063198;28;20242;-63
2021/12/14 11:09:41;;;;;;;48.23;30.23;;;8.50;99.90;;;;;;5072712;28;20325;-63
2021/12/14 11:12:17;;;;;;;45.87;28.17;;;8.60;99.90;;;;;;5060105;28;20704;-63
2021/12/14 11:14:47;;;;;;;47.87;30.80;;;8.60;99.90;;;;;;5062206;28;20285;-63
2021/12/14 11:20:06;;;;;;;47.37;30.00;;;8.50;99.90;;;;;;5062922;28;20273;-62
2021/12/14 11:22:44;;;;;;;51.87;31.33;;;8.60;99.90;;;;;;5062875;28;20805;-63
2021/12/14 11:25:31;;;;;;;46.30;29.20;;;8.60;99.90;;;;;;5054416;28;20345;-63
2021/12/14 11:28:04;;;;;;;49.07;30.27;;;8.60;99.90;;;;;;5068747;28;20232;-63
2021/12/14 11:30:34;;;;;;;49.13;29.43;;;8.60;99.90;;;;;;5062361;28;21779;-63
2021/12/14 11:33:07;;;;;;;47.13;29.43;;;8.60;99.90;;;;;;5058015;28;20800;-63
2021/12/14 11:35:40;;;;;;;46.37;28.67;;;8.60;99.90;;;;;;5062682;28;20237;-63
2021/12/14 11:38:25;;;;;;;52.33;34.55;;;8.60;99.90;;;;;;5060737;28;20554;-62
2021/12/14 11:40:56;;;;;;;45.90;29.80;;;8.60;99.90;;;;;;5062973;28;20404;-62
2021/12/14 11:43:30;;;;;;;44.97;29.07;;;8.60;99.90;;;;;;5064702;28;20314;-62
2021/12/14 11:45:59;;;;;;;41.23;27.77;;;8.70;99.90;;;;;;5069031;28;20263;-62
2021/12/14 11:48:31;;;;;;;43.00;28.03;;;8.60;99.90;;;;;;5072400;28;20330;-62
2021/12/14 11:51:02;;;;;;;45.40;28.27;;;8.70;99.90;;;;;;5069901;28;20270;-62
2021/12/14 11:53:30;;;;;;;45.27;28.20;;;8.70;99.90;;;;;;5069282;28;20564;-62
2021/12/14 11:56:03;;;;;;;44.77;28.37;;;8.80;99.90;;;;;;5075598;28;20238;-62
2021/12/14 11:58:36;;;;;;;41.60;28.10;;;8.70;99.90;;;;;;5067432;28;20321;-62
2021/12/14 12:01:11;;;;;;;43.10;28.53;;;8.80;99.90;;;;;;5069807;28;20243;-62
2021/12/14 12:03:43;;;;;;;43.43;27.70;;;8.80;99.90;;;;;;5073940;28;20239;-62
2021/12/14 12:06:32;;;;;;;39.47;26.30;;;8.70;99.90;;;;;;5074928;28;20303;-62
2021/12/14 12:11:54;;;;;;;39.57;26.60;;;8.60;99.90;;;;;;5071024;28;20234;-62
2021/12/14 12:14:27;;;;;;;39.73;27.27;;;8.70;99.90;;;;;;5076202;28;20371;-62
2021/12/14 12:16:59;;;;;;;42.23;27.43;;;8.70;99.90;;;;;;5064425;28;20235;-62
2021/12/14 12:19:29;;;;;;;45.20;28.30;;;8.70;99.90;;;;;;5069674;28;20852;-62
2021/12/14 12:22:07;;;;;;;41.27;27.63;;;8.70;99.90;;;;;;5069307;28;20728;-62
2021/12/14 12:24:44;;;;;;;39.93;26.47;;;8.70;99.90;;;;;;5064297;28;20316;-61
2021/12/14 12:27:28;;;;;;;40.40;26.70;;;8.70;99.90;;;;;;5077803;28;20714;-62
2021/12/14 12:30:35;;;;;;;39.43;27.30;;;8.80;99.90;;;;;;5059019;28;20493;-62
2021/12/14 12:33:31;;;;;;;35.67;25.13;;;8.80;99.90;;;;;;5054228;28;20243;-61
2021/12/14 12:36:05;;;;;;;34.60;24.27;;;8.70;99.90;;;;;;5060675;28;20232;-62
2021/12/14 12:38:48;;;;;;;37.93;25.33;;;8.90;99.90;;;;;;5061519;28;20378;-62
2021/12/14 12:41:28;;;;;;;36.47;25.13;;;8.80;99.90;;;;;;5061646;28;20671;-60
2021/12/14 12:44:02;;;;;;;34.60;23.97;;;8.90;99.90;;;;;;5062035;28;20789;-60
2021/12/14 12:46:35;;;;;;;35.57;23.90;;;8.90;99.90;;;;;;5064202;28;20245;-62
2021/12/14 12:49:17;;;;;;;34.13;24.10;;;8.80;99.90;;;;;;5062274;28;20235;-62
2021/12/14 12:51:56;;;;;;;33.30;23.13;;;8.80;99.90;;;;;;5062944;28;20257;-62
2021/12/14 12:54:51;;;;;;;31.43;22.00;;;8.80;99.90;;;;;;5062281;28;20452;-62
2021/12/14 12:57:52;;;;;;;33.20;22.63;;;8.90;99.90;;;;;;5065843;28;20263;-62
2021/12/14 13:00:32;;;;;;;32.23;22.00;;;8.90;99.90;;;;;;5062229;28;20329;-62
2021/12/14 13:03:28;;;;;;;34.50;22.03;;;8.90;99.90;;;;;;5062985;28;20312;-61
2021/12/14 13:06:00;;;;;;;30.97;20.80;;;8.90;99.90;;;;;;5064987;28;20231;-62
2021/12/14 13:08:33;;;;;;;33.33;21.93;;;8.80;99.90;;;;;;5042626;28;20231;-61
2021/12/14 13:11:06;;;;;;;34.10;21.37;;;8.90;99.90;;;;;;5050375;28;20285;-62
2021/12/14 13:13:41;;;;;;;28.67;19.53;;;8.90;99.90;;;;;;5051083;28;20345;-63
2021/12/14 13:16:14;;;;;;;30.07;20.87;;;8.80;99.90;;;;;;5051402;28;20373;-62
2021/12/14 13:18:49;;;;;;;28.07;19.47;;;8.80;99.90;;;;;;5046087;28;20320;-62
2021/12/14 13:21:25;;;;;;;26.27;19.13;;;8.90;99.90;;;;;;5049740;28;20613;-62
2021/12/14 13:24:06;;;;;;;29.57;20.67;;;8.90;99.90;;;;;;5051143;28;20265;-62
2021/12/14 13:26:39;;;;;;;31.47;19.17;;;8.90;99.90;;;;;;5050823;28;20238;-62
2021/12/14 13:29:27;;;;;;;32.43;19.33;;;8.90;99.90;;;;;;5046565;28;20345;-62
2021/12/14 13:31:59;;;;;;;29.33;19.03;;;8.90;99.90;;;;;;5050455;28;20239;-62
2021/12/14 13:34:47;;;;;;;27.27;19.17;;;8.90;99.90;;;;;;5050164;28;20828;-61